Time;durP1;ratioP1;P1;durP2;ratioP2;P2;SDS_P1;SDS_P2;PMS_P1;PMS_P2;Temp;Humidity;BMP_temperature;BMP_pressure;BME280_temperature;BME280_humidity;BME280_pressure;Samples;Min_cycle;Max_cycle;Signal;HPM_P1;HPM_P2
2021/12/01 00:01:29;;;;;;;1.38;0.80;;;;;;;19.07;46.68;100093.13;5096562;28;20016;-68
2021/12/01 00:03:54;;;;;;;1.73;0.80;;;;;;;19.06;46.62;100088.84;5095140;28;20039;-68
2021/12/01 00:06:19;;;;;;;1.83;0.82;;;;;;;19.05;46.55;100079.25;5095874;28;20024;-69
2021/12/01 00:08:45;;;;;;;1.10;0.73;;;;;;;19.03;46.78;100063.56;5095890;28;20020;-69
2021/12/01 00:11:10;;;;;;;1.63;0.80;;;;;;;19.02;46.60;100061.88;5095199;28;20529;-69
2021/12/01 00:13:35;;;;;;;1.27;0.70;;;;;;;19.01;46.78;100062.88;5095888;28;20068;-69
2021/12/01 00:16:01;;;;;;;1.42;0.70;;;;;;;18.99;46.75;100056.06;5095637;28;20326;-69
2021/12/01 00:18:27;;;;;;;1.83;0.70;;;;;;;18.99;46.75;100045.50;5094826;28;20398;-69
2021/12/01 00:20:52;;;;;;;1.40;0.63;;;;;;;18.96;46.86;100041.38;5095137;28;20028;-68
2021/12/01 00:23:17;;;;;;;1.63;0.80;;;;;;;18.96;46.74;100036.09;5095788;28;20103;-68
2021/12/01 00:25:43;;;;;;;1.60;0.80;;;;;;;18.96;46.87;100014.97;5094595;28;20036;-69
2021/12/01 00:28:09;;;;;;;1.38;0.75;;;;;;;18.94;46.69;100014.28;5095487;28;20036;-68
2021/12/01 00:30:35;;;;;;;1.40;0.60;;;;;;;18.93;46.75;100001.22;5095406;28;20500;-68
2021/12/01 00:33:01;;;;;;;1.40;0.70;;;;;;;18.92;46.96;99991.66;5094200;28;20028;-69
2021/12/01 00:35:27;;;;;;;1.63;0.60;;;;;;;18.89;46.78;99982.22;5095298;28;20020;-69
2021/12/01 00:37:53;;;;;;;1.48;0.70;;;;;;;18.89;46.67;99978.75;5095220;28;20036;-69
2021/12/01 00:40:20;;;;;;;1.33;0.68;;;;;;;18.86;46.90;99971.97;5094625;28;20016;-69
2021/12/01 00:42:46;;;;;;;1.48;0.77;;;;;;;18.85;46.97;99976.41;5094824;28;20428;-68
2021/12/01 00:45:33;;;;;;;1.20;0.70;;;;;;;18.86;46.94;99971.97;5095212;28;20113;-69
2021/12/01 00:47:58;;;;;;;1.58;0.80;;;;;;;18.82;46.93;99952.09;5094447;28;20043;-69
2021/12/01 00:50:29;;;;;;;0.90;0.60;;;;;;;18.82;46.99;99949.47;5095264;28;20364;-69
2021/12/01 00:52:57;;;;;;;0.90;0.70;;;;;;;18.82;46.71;99946.81;5093822;28;20478;-69
2021/12/01 00:55:23;;;;;;;1.17;0.70;;;;;;;18.80;46.86;99946.97;5095031;28;20039;-69
2021/12/01 00:57:50;;;;;;;1.42;0.60;;;;;;;18.79;47.07;99949.75;5094549;28;20036;-69
2021/12/01 01:00:17;;;;;;;1.30;0.63;;;;;;;18.76;46.77;99944.78;5094113;28;20487;-69
2021/12/01 01:02:42;;;;;;;0.88;0.60;;;;;;;18.76;46.85;99948.25;5094409;28;20460;-69
2021/12/01 01:05:09;;;;;;;1.10;0.70;;;;;;;18.75;46.82;99924.63;5094825;28;20020;-69
2021/12/01 01:07:34;;;;;;;1.23;0.70;;;;;;;18.75;47.08;99924.63;5093463;28;20024;-69
2021/12/01 01:10:06;;;;;;;1.77;0.70;;;;;;;18.71;47.12;99912.72;5094484;28;20024;-69
2021/12/01 01:18:07;;;;;;;1.33;0.65;;;;;;;18.70;46.86;99897.88;5094205;28;20098;-68
2021/12/01 01:20:34;;;;;;;0.85;0.60;;;;;;;18.68;46.97;99896.22;5094018;28;20103;-67
2021/12/01 01:23:08;;;;;;;1.27;0.70;;;;;;;18.66;46.78;99890.25;5094205;28;20024;-68
2021/12/01 01:25:34;;;;;;;1.73;0.77;;;;;;;18.65;46.88;99893.03;5094393;28;20020;-69
2021/12/01 01:27:59;;;;;;;1.00;0.60;;;;;;;18.65;46.89;99890.41;5093665;28;20048;-68
2021/12/01 01:30:24;;;;;;;1.95;0.80;;;;;;;18.64;47.09;99875.53;5094360;28;20055;-68
2021/12/01 01:32:50;;;;;;;1.50;0.80;;;;;;;18.62;46.88;99862.50;5093990;28;20467;-68
2021/12/01 01:35:15;;;;;;;1.33;0.73;;;;;;;18.62;46.94;99861.69;5093733;28;20107;-68
2021/12/01 01:37:41;;;;;;;2.22;0.70;;;;;;;18.60;47.05;99859.19;5093797;28;20389;-68
2021/12/01 01:40:08;;;;;;;2.22;0.93;;;;;;;18.59;46.71;99864.63;5094083;28;20036;-68
2021/12/01 01:42:33;;;;;;;1.52;0.80;;;;;;;18.59;46.89;99865.44;5093460;28;20486;-68
2021/12/01 01:44:58;;;;;;;1.30;0.70;;;;;;;18.57;46.67;99859.50;5093713;28;20381;-68
2021/12/01 01:47:24;;;;;;;1.60;0.73;;;;;;;18.58;46.67;99860.31;5094085;28;20027;-68
2021/12/01 01:49:55;;;;;;;1.50;0.70;;;;;;;18.57;46.64;99854.22;5092975;28;20027;-69
2021/12/01 01:52:21;;;;;;;2.35;0.68;;;;;;;18.56;47.09;99849.91;5093784;28;20476;-69
2021/12/01 01:54:46;;;;;;;1.42;0.70;;;;;;;18.55;47.12;99824.53;5093461;28;20043;-68
2021/12/01 01:57:12;;;;;;;2.03;0.70;;;;;;;18.54;46.79;99836.03;5093204;28;20055;-69
2021/12/01 01:59:37;;;;;;;0.60;0.57;;;;;;;18.53;46.68;99834.38;5093940;28;20141;-69
2021/12/01 02:02:04;;;;;;;1.90;0.70;;;;;;;18.51;46.69;99823.16;5093490;28;20471;-69
2021/12/01 02:04:33;;;;;;;0.70;0.52;;;;;;;18.47;46.61;99817.38;5093005;28;20471;-67
2021/12/01 02:06:59;;;;;;;1.25;0.68;;;;;;;18.49;46.74;99820.66;5093377;28;20024;-68
2021/12/01 02:09:25;;;;;;;0.63;0.60;;;;;;;18.50;46.99;99810.97;5093456;28;20035;-67
2021/12/01 02:11:57;;;;;;;1.58;0.60;;;;;;;18.49;46.55;99804.84;5092677;28;20111;-68
2021/12/01 02:14:23;;;;;;;1.23;0.70;;;;;;;18.49;46.89;99796.09;5093281;28;20467;-68
2021/12/01 02:16:49;;;;;;;0.80;0.50;;;;;;;18.47;46.56;99782.25;5092375;28;20123;-69
2021/12/01 02:19:15;;;;;;;1.00;0.65;;;;;;;18.47;46.56;99783.06;5091864;28;20063;-68
2021/12/01 02:21:41;;;;;;;0.73;0.50;;;;;;;18.46;46.71;99770.03;5092385;28;20387;-68
2021/12/01 02:24:09;;;;;;;0.68;0.50;;;;;;;18.44;46.87;99770.19;5092402;28;20062;-69
2021/12/01 02:26:46;;;;;;;1.30;0.70;;;;;;;18.45;46.61;99771.00;5092742;28;20057;-68
2021/12/01 02:29:15;;;;;;;0.73;0.47;;;;;;;18.44;46.47;99750.91;5093007;28;20024;-68
2021/12/01 02:31:43;;;;;;;0.73;0.50;;;;;;;18.44;46.48;99756.16;5091639;28;20028;-68
2021/12/01 02:34:17;;;;;;;1.20;0.60;;;;;;;18.42;46.80;99745.78;5092630;28;20040;-68
2021/12/01 02:36:46;;;;;;;1.53;0.70;;;;;;;18.41;46.58;99746.75;5092478;28;20035;-68
2021/12/01 02:39:13;;;;;;;1.05;0.60;;;;;;;18.42;46.69;99734.38;5092139;28;20394;-68
2021/12/01 02:41:39;;;;;;;0.90;0.60;;;;;;;18.38;46.51;99719.84;5092774;28;20050;-67
2021/12/01 02:44:06;;;;;;;1.95;0.60;;;;;;;18.39;46.33;99710.94;5092667;28;20340;-68
2021/12/01 02:46:32;;;;;;;1.00;0.57;;;;;;;18.38;46.72;99715.38;5091818;28;20053;-68
2021/12/01 02:48:58;;;;;;;0.88;0.60;;;;;;;18.36;46.56;99709.44;5092132;28;20024;-68
2021/12/01 02:51:30;;;;;;;0.73;0.43;;;;;;;18.37;46.34;99697.91;5093001;28;20079;-69
2021/12/01 02:53:56;;;;;;;1.02;0.52;;;;;;;18.36;46.25;99696.25;5091658;28;20044;-68
2021/12/01 02:56:22;;;;;;;0.80;0.55;;;;;;;18.34;46.35;99674.50;5092516;28;20541;-68
2021/12/01 02:58:48;;;;;;;0.63;0.40;;;;;;;18.36;46.56;99679.59;5092219;28;20027;-69
2021/12/01 03:01:18;;;;;;;1.50;0.70;;;;;;;18.35;46.28;99688.50;5091679;28;20492;-69
2021/12/01 03:03:45;;;;;;;1.65;0.70;;;;;;;18.33;46.37;99672.00;5092293;28;20034;-69
2021/12/01 03:06:11;;;;;;;1.17;0.60;;;;;;;18.32;46.32;99660.59;5091943;28;20099;-69
2021/12/01 03:08:38;;;;;;;1.35;0.80;;;;;;;18.32;46.47;99647.41;5092224;28;20480;-69
2021/12/01 03:11:04;;;;;;;0.75;0.60;;;;;;;18.31;46.32;99651.06;5092042;28;20054;-68
2021/12/01 03:13:30;;;;;;;0.75;0.52;;;;;;;18.30;46.06;99660.75;5091099;28;20073;-69
2021/12/01 03:15:55;;;;;;;1.88;0.80;;;;;;;18.28;46.28;99627.63;5091737;28;20039;-68
2021/12/01 03:18:22;;;;;;;1.40;0.70;;;;;;;18.28;46.11;99635.53;5091875;28;20051;-69
2021/12/01 03:20:49;;;;;;;1.40;0.63;;;;;;;18.28;46.49;99641.63;5091288;28;20048;-68
2021/12/01 03:23:16;;;;;;;1.10;0.60;;;;;;;18.27;46.02;99618.06;5092257;28;20028;-68
2021/12/01 03:25:42;;;;;;;2.08;0.70;;;;;;;18.27;46.22;99625.97;5091674;28;20031;-68
2021/12/01 03:28:08;;;;;;;1.65;0.80;;;;;;;18.27;46.10;99612.78;5091439;28;20114;-69
2021/12/01 03:30:37;;;;;;;0.70;0.60;;;;;;;18.26;46.20;99600.56;5094127;28;20023;-67
2021/12/01 03:33:04;;;;;;;1.27;0.60;;;;;;;18.26;45.99;99605.84;5095622;28;20119;-68
2021/12/01 03:35:30;;;;;;;1.63;0.60;;;;;;;18.27;46.42;99604.88;5095616;28;20032;-68
2021/12/01 03:37:55;;;;;;;1.63;0.77;;;;;;;18.27;46.35;99586.41;5095943;28;20028;-68
2021/12/01 03:40:21;;;;;;;1.00;0.60;;;;;;;18.28;46.15;99588.88;5096121;28;20394;-68
2021/12/01 03:42:46;;;;;;;0.75;0.60;;;;;;;18.30;46.46;99580.81;5095129;28;20036;-69
2021/12/01 03:45:14;;;;;;;0.75;0.50;;;;;;;18.29;46.15;99569.47;5096068;28;20043;-68
2021/12/01 03:47:39;;;;;;;1.55;0.70;;;;;;;18.30;45.90;99571.09;5095921;28;20020;-68
2021/12/01 03:50:05;;;;;;;1.48;0.80;;;;;;;18.32;46.05;99570.94;5095371;28;20021;-68
2021/12/01 03:52:32;;;;;;;0.90;0.57;;;;;;;18.33;45.82;99555.97;5095788;28;20028;-68
2021/12/01 03:54:57;;;;;;;0.63;0.50;;;;;;;18.32;45.60;99547.19;5095522;28;20536;-68
2021/12/01 03:57:23;;;;;;;1.20;0.70;;;;;;;18.34;45.95;99528.56;5094897;28;20020;-69
2021/12/01 03:59:48;;;;;;;1.05;0.60;;;;;;;18.33;45.82;99522.50;5095366;28;20021;-68
2021/12/01 04:02:14;;;;;;;1.77;0.70;;;;;;;18.34;46.04;99523.31;5095943;28;20035;-68
2021/12/01 04:04:39;;;;;;;1.25;0.70;;;;;;;18.33;45.85;99506.66;5094800;28;20042;-68
2021/12/01 04:07:05;;;;;;;1.37;0.80;;;;;;;18.34;45.71;99499.56;5095891;28;20498;-68
2021/12/01 04:09:31;;;;;;;1.77;0.82;;;;;;;18.34;45.84;99491.66;5095174;28;20264;-69
2021/12/01 04:11:57;;;;;;;1.25;0.70;;;;;;;18.32;45.72;99483.91;5095351;28;20106;-68
2021/12/01 04:14:22;;;;;;;1.13;0.63;;;;;;;18.33;45.56;99490.03;5095735;28;20507;-68
2021/12/01 04:16:48;;;;;;;1.48;0.70;;;;;;;18.33;45.67;99492.66;5094823;28;20522;-68
2021/12/01 04:19:13;;;;;;;2.15;0.82;;;;;;;18.33;45.42;99482.09;5096020;28;20016;-68
2021/12/01 04:21:39;;;;;;;1.45;0.70;;;;;;;18.33;45.61;99474.19;5096064;28;20047;-67
2021/12/01 04:24:05;;;;;;;1.42;0.70;;;;;;;18.31;45.71;99466.44;5096341;28;20397;-68
2021/12/01 04:26:32;;;;;;;1.50;0.80;;;;;;;18.30;45.84;99457.69;5100565;28;20043;-68
2021/12/01 04:28:58;;;;;;;1.58;0.82;;;;;;;18.31;45.97;99464.63;5100767;28;20031;-68
2021/12/01 04:31:25;;;;;;;1.17;0.50;;;;;;;18.32;45.79;99441.69;5099404;28;20364;-68
2021/12/01 04:33:51;;;;;;;0.75;0.50;;;;;;;18.31;45.71;99440.06;5096375;28;20555;-68
2021/12/01 04:36:18;;;;;;;1.25;0.68;;;;;;;18.31;46.04;99440.88;5095558;28;20055;-69
2021/12/01 04:38:44;;;;;;;1.27;0.70;;;;;;;18.33;45.91;99434.63;5095081;28;20051;-69
2021/12/01 04:41:13;;;;;;;1.25;0.60;;;;;;;18.34;45.74;99415.16;5094533;28;20094;-68
2021/12/01 04:43:38;;;;;;;1.08;0.57;;;;;;;18.34;46.09;99392.28;5095416;28;20143;-68
2021/12/01 04:46:05;;;;;;;1.35;0.70;;;;;;;18.32;45.60;99396.88;5093454;28;20056;-69
2021/12/01 04:48:31;;;;;;;1.52;0.70;;;;;;;18.36;45.51;99392.09;5095530;28;20047;-68
2021/12/01 04:50:57;;;;;;;1.08;0.70;;;;;;;18.34;45.59;99388.78;5095456;28;20020;-68
2021/12/01 04:53:25;;;;;;;1.85;0.50;;;;;;;18.34;45.59;99373.81;5094961;28;20035;-69
2021/12/01 04:55:52;;;;;;;1.55;0.68;;;;;;;18.35;45.49;99375.44;5095725;28;20024;-68
2021/12/01 04:58:18;;;;;;;0.98;0.50;;;;;;;18.34;45.45;99373.81;5095750;28;20032;-69
2021/12/01 05:00:43;;;;;;;1.48;0.63;;;;;;;18.34;45.35;99365.06;5094834;28;20023;-68
2021/12/01 05:03:09;;;;;;;0.90;0.57;;;;;;;18.35;45.31;99362.25;5097145;28;20028;-69
2021/12/01 05:05:34;;;;;;;1.38;0.52;;;;;;;18.34;45.42;99354.50;5096606;28;20020;-70
2021/12/01 05:07:59;;;;;;;0.90;0.60;;;;;;;18.33;45.42;99348.41;5094262;28;20036;-68
2021/12/01 05:10:24;;;;;;;1.55;0.70;;;;;;;18.35;45.33;99364.91;5094648;28;20028;-69
2021/12/01 05:12:50;;;;;;;1.40;0.80;;;;;;;18.33;45.27;99344.97;5093763;28;20028;-68
2021/12/01 05:15:15;;;;;;;1.02;0.65;;;;;;;18.33;45.47;99352.88;5098904;28;20079;-68
2021/12/01 05:17:43;;;;;;;1.48;0.70;;;;;;;18.33;45.09;99334.41;5099159;28;20055;-68
2021/12/01 05:20:11;;;;;;;0.98;0.60;;;;;;;18.32;45.50;99344.13;5094311;28;20123;-68
2021/12/01 05:22:37;;;;;;;2.25;0.70;;;;;;;18.30;45.44;99328.47;5094941;28;20099;-68
2021/12/01 05:25:04;;;;;;;0.82;0.50;;;;;;;18.31;45.57;99324.84;5094058;28;20024;-68
2021/12/01 05:27:31;;;;;;;0.82;0.50;;;;;;;18.33;45.43;99322.03;5094015;28;20123;-69
2021/12/01 05:29:57;;;;;;;1.98;0.60;;;;;;;18.33;45.34;99323.88;5094510;28;20024;-69
2021/12/01 05:32:22;;;;;;;1.35;0.60;;;;;;;18.33;45.54;99297.50;5094378;28;20065;-69
2021/12/01 05:34:48;;;;;;;1.25;0.60;;;;;;;18.33;45.54;99308.84;5093511;28;20047;-68
2021/12/01 05:37:13;;;;;;;1.05;0.50;;;;;;;18.31;45.32;99309.03;5094272;28;20099;-67
2021/12/01 05:39:41;;;;;;;1.33;0.60;;;;;;;18.33;45.58;99306.22;5094076;28;20178;-68
2021/12/01 05:42:08;;;;;;;1.05;0.60;;;;;;;18.34;45.56;99301.75;5093495;28;20040;-69
2021/12/01 05:44:34;;;;;;;1.02;0.50;;;;;;;18.34;45.25;99299.13;5094174;28;20471;-69
2021/12/01 05:47:00;;;;;;;1.27;0.63;;;;;;;18.34;45.06;99302.59;5093884;28;20060;-67
2021/12/01 05:49:26;;;;;;;0.63;0.40;;;;;;;18.33;45.48;99286.94;5093365;28;20085;-68
2021/12/01 05:51:51;;;;;;;1.45;0.60;;;;;;;18.33;45.01;99269.28;5093731;28;20106;-68
2021/12/01 05:54:17;;;;;;;1.20;0.57;;;;;;;18.33;45.34;99277.22;5093523;28;20047;-68
2021/12/01 05:56:42;;;;;;;1.13;0.60;;;;;;;18.33;45.25;99274.56;5093094;28;20040;-68
2021/12/01 05:59:07;;;;;;;0.70;0.57;;;;;;;18.32;45.33;99272.91;5094013;28;20024;-68
2021/12/01 06:01:33;;;;;;;0.70;0.50;;;;;;;18.33;45.02;99266.66;5093708;28;20097;-68
2021/12/01 06:03:58;;;;;;;1.08;0.60;;;;;;;18.31;45.04;99258.91;5092737;28;20058;-68
2021/12/01 06:06:23;;;;;;;1.27;0.60;;;;;;;18.32;45.64;99257.09;5093550;28;20016;-68
2021/12/01 06:08:49;;;;;;;1.25;0.60;;;;;;;18.32;45.49;99246.53;5093221;28;20035;-68
2021/12/01 06:11:14;;;;;;;0.82;0.40;;;;;;;18.31;45.71;99244.91;5092992;28;20016;-68
2021/12/01 06:13:41;;;;;;;0.93;0.50;;;;;;;18.30;45.76;99225.59;5093163;28;20039;-68
2021/12/01 06:16:07;;;;;;;0.85;0.50;;;;;;;18.33;45.79;99226.28;5092903;28;20047;-68
2021/12/01 06:18:32;;;;;;;0.70;0.60;;;;;;;18.35;45.58;99217.19;5093304;28;20404;-68
2021/12/01 06:20:58;;;;;;;0.33;0.30;;;;;;;18.37;45.80;99211.75;5093049;28;20027;-70
2021/12/01 06:23:24;;;;;;;0.90;0.50;;;;;;;18.35;45.65;99201.38;5092510;28;20364;-70
2021/12/01 06:25:49;;;;;;;0.70;0.50;;;;;;;18.39;45.63;99194.78;5093221;28;20464;-72
2021/12/01 06:28:15;;;;;;;1.23;0.50;;;;;;;18.42;45.81;99207.66;5093240;28;20028;-68
2021/12/01 06:30:40;;;;;;;1.17;0.50;;;;;;;18.43;45.64;99198.72;5092391;28;20286;-67
2021/12/01 06:33:05;;;;;;;0.75;0.40;;;;;;;18.45;45.75;99185.38;5093219;28;20024;-68
2021/12/01 06:35:31;;;;;;;0.52;0.43;;;;;;;18.45;45.76;99190.66;5093116;28;20028;-67
2021/12/01 06:37:57;;;;;;;1.25;0.60;;;;;;;18.47;45.71;99184.22;5092095;28;20407;-69
2021/12/01 06:40:24;;;;;;;1.45;0.40;;;;;;;18.50;45.67;99183.09;5093091;28;20558;-65
2021/12/01 06:42:50;;;;;;;1.05;0.40;;;;;;;18.53;45.96;99176.63;5093010;28;20032;-65
2021/12/01 06:45:18;;;;;;;0.63;0.40;;;;;;;18.54;46.07;99192.28;5092453;28;20384;-66
2021/12/01 06:47:45;;;;;;;0.77;0.40;;;;;;;18.54;45.93;99173.00;5092796;28;20047;-66
2021/12/01 06:50:11;;;;;;;0.90;0.40;;;;;;;18.57;46.21;99172.69;5092847;28;20023;-68
2021/12/01 06:52:40;;;;;;;1.38;0.50;;;;;;;18.58;45.85;99164.59;5091842;28;20051;-67
2021/12/01 06:55:07;;;;;;;0.40;0.40;;;;;;;18.60;46.12;99164.44;5093260;28;20115;-68
2021/12/01 06:57:32;;;;;;;1.52;0.30;;;;;;;18.61;45.88;99156.34;5092992;28;20032;-68
2021/12/01 06:59:58;;;;;;;0.45;0.35;;;;;;;18.62;45.79;99157.97;5091920;28;20032;-65
2021/12/01 07:02:23;;;;;;;2.35;0.50;;;;;;;18.64;45.80;99147.25;5092811;28;20016;-66
2021/12/01 07:04:49;;;;;;;0.57;0.40;;;;;;;18.65;46.06;99138.34;5091996;28;20027;-68
2021/12/01 07:07:14;;;;;;;0.97;0.43;;;;;;;18.66;45.93;99147.94;5091841;28;20043;-71
2021/12/01 07:09:43;;;;;;;0.60;0.40;;;;;;;18.68;45.82;99149.38;5092652;28;20280;-71
2021/12/01 07:12:09;;;;;;;1.33;0.40;;;;;;;18.71;45.93;99139.47;5092813;28;20043;-68
2021/12/01 07:14:35;;;;;;;0.82;0.50;;;;;;;18.71;45.78;99135.03;5091949;28;20028;-74
2021/12/01 07:17:00;;;;;;;1.63;0.50;;;;;;;18.72;46.29;99134.03;5092290;28;20126;-72
2021/12/01 07:19:25;;;;;;;1.95;0.50;;;;;;;18.74;45.88;99126.78;5091968;28;20028;-73
2021/12/01 07:21:50;;;;;;;0.77;0.40;;;;;;;18.75;46.08;99131.06;5092192;28;20031;-73
2021/12/01 07:24:16;;;;;;;0.97;0.40;;;;;;;18.77;45.77;99131.72;5092890;28;20669;-74
2021/12/01 07:26:42;;;;;;;1.83;0.60;;;;;;;18.78;46.18;99133.34;5091756;28;20281;-74
2021/12/01 07:29:08;;;;;;;1.33;0.60;;;;;;;18.79;46.08;99135.00;5093077;28;20024;-74
2021/12/01 07:31:33;;;;;;;2.20;0.50;;;;;;;18.79;46.16;99140.28;5092593;28;20016;-74
2021/12/01 07:33:59;;;;;;;0.60;0.40;;;;;;;18.79;46.12;99137.66;5091571;28;20043;-73
2021/12/01 07:36:24;;;;;;;1.50;0.50;;;;;;;18.80;46.17;99138.47;5092550;28;20430;-74
2021/12/01 07:38:50;;;;;;;0.87;0.43;;;;;;;18.80;46.11;99131.41;5092398;28;20028;-74
2021/12/01 07:41:17;;;;;;;0.47;0.30;;;;;;;18.83;45.84;99128.41;5091805;28;20439;-73
2021/12/01 07:43:42;;;;;;;1.13;0.60;;;;;;;18.85;46.06;99123.81;5092292;28;20024;-74
2021/12/01 07:46:08;;;;;;;1.10;0.60;;;;;;;18.87;46.08;99133.34;5092351;28;20537;-73
2021/12/01 07:48:33;;;;;;;1.38;0.50;;;;;;;18.87;45.94;99128.06;5091629;28;20490;-73
2021/12/01 07:50:58;;;;;;;2.00;0.60;;;;;;;18.88;46.14;99135.00;5092172;28;20483;-73
2021/12/01 07:53:24;;;;;;;0.55;0.40;;;;;;;18.89;46.24;99128.75;5092459;28;20036;-72
2021/12/01 07:55:49;;;;;;;2.03;0.50;;;;;;;18.89;46.27;99115.56;5091472;28;20020;-71
2021/12/01 07:58:14;;;;;;;2.28;0.77;;;;;;;18.90;46.33;99114.53;5092379;28;20032;-72
2021/12/01 08:00:40;;;;;;;1.98;0.60;;;;;;;18.90;46.02;99096.06;5092007;28;20051;-73
2021/12/01 08:03:05;;;;;;;2.00;0.50;;;;;;;18.91;46.15;99103.00;5091503;28;20491;-73
2021/12/01 08:05:32;;;;;;;1.20;0.55;;;;;;;18.91;46.12;99100.34;5092234;28;20016;-73
2021/12/01 08:07:57;;;;;;;0.98;0.50;;;;;;;18.90;46.25;99101.34;5091676;28;20123;-71
2021/12/01 08:10:23;;;;;;;2.25;0.40;;;;;;;18.90;46.09;99099.53;5091493;28;20103;-72
2021/12/01 08:12:51;;;;;;;0.50;0.40;;;;;;;18.91;46.24;99097.72;5091855;28;20517;-72
2021/12/01 08:15:16;;;;;;;1.08;0.40;;;;;;;18.93;46.06;99093.06;5092228;28;20035;-74
2021/12/01 08:17:42;;;;;;;0.75;0.40;;;;;;;18.91;46.16;99089.81;5094766;28;20399;-73
2021/12/01 08:20:07;;;;;;;1.65;0.52;;;;;;;18.92;46.23;99087.00;5095931;28;20020;-74
2021/12/01 08:22:33;;;;;;;2.03;0.52;;;;;;;18.91;45.83;99081.88;5095473;28;20032;-73
2021/12/01 08:24:58;;;;;;;1.58;0.40;;;;;;;18.89;46.36;99084.69;5095743;28;20321;-72
2021/12/01 08:27:25;;;;;;;0.95;0.40;;;;;;;18.89;46.20;99087.31;5096040;28;20036;-73
2021/12/01 08:29:51;;;;;;;1.10;0.40;;;;;;;18.93;46.10;99088.66;5097057;28;20028;-71
2021/12/01 08:32:16;;;;;;;1.63;0.47;;;;;;;19.06;45.87;99081.97;5096629;28;20032;-70
2021/12/01 08:34:41;;;;;;;2.57;0.43;;;;;;;19.16;45.54;99086.03;5100856;28;20394;-70
2021/12/01 08:37:08;;;;;;;1.27;0.40;;;;;;;19.28;45.32;99078.56;5097291;28;20280;-72
2021/12/01 08:39:34;;;;;;;0.40;0.28;;;;;;;19.36;45.14;99075.84;5096715;28;20035;-71
2021/12/01 08:42:00;;;;;;;1.35;0.50;;;;;;;19.41;44.76;99077.97;5095298;28;20040;-71
2021/12/01 08:44:25;;;;;;;1.08;0.50;;;;;;;19.47;44.68;99073.78;5099531;28;20035;-76
2021/12/01 08:46:50;;;;;;;1.10;0.43;;;;;;;19.51;44.73;99073.25;5095845;28;20044;-75
2021/12/01 08:49:16;;;;;;;4.03;0.50;;;;;;;19.56;44.76;99070.09;5096469;28;20066;-70
2021/12/01 08:51:41;;;;;;;1.85;0.50;;;;;;;19.63;44.69;99065.75;5096927;28;20308;-75
2021/12/01 08:54:07;;;;;;;2.13;0.40;;;;;;;19.68;44.32;99055.47;5096735;28;20036;-77
2021/12/01 08:56:32;;;;;;;1.13;0.50;;;;;;;19.71;44.09;99063.03;5096386;28;20080;-76
2021/12/01 08:58:58;;;;;;;0.50;0.32;;;;;;;19.74;44.07;99062.69;5095086;28;20016;-72
2021/12/01 09:01:23;;;;;;;0.77;0.30;;;;;;;19.78;44.00;99057.91;5097002;28;20044;-70
2021/12/01 09:03:48;;;;;;;2.15;0.50;;;;;;;19.82;43.84;99061.84;5096425;28;20047;-69
2021/12/01 09:06:13;;;;;;;1.77;0.50;;;;;;;19.86;43.62;99067.56;5095658;28;20020;-71
2021/12/01 09:08:39;;;;;;;1.50;0.50;;;;;;;19.86;43.63;99063.09;5095838;28;20351;-75
2021/12/01 09:11:05;;;;;;;3.00;0.50;;;;;;;19.84;43.88;99059.81;5095391;28;20501;-69
2021/12/01 09:13:32;;;;;;;1.52;0.50;;;;;;;19.73;43.97;99071.59;5093988;28;20066;-70
2021/12/01 09:15:58;;;;;;;2.47;0.40;;;;;;;19.66;44.25;99077.78;5094826;28;20577;-69
2021/12/01 09:18:27;;;;;;;3.13;0.50;;;;;;;19.69;44.07;99066.84;5095889;28;20040;-70
2021/12/01 09:20:53;;;;;;;1.48;0.43;;;;;;;19.72;43.99;99069.16;5093787;28;20370;-71
2021/12/01 09:23:19;;;;;;;2.50;0.50;;;;;;;19.74;44.03;99070.63;5094837;28;20044;-69
2021/12/01 09:25:45;;;;;;;2.95;0.50;;;;;;;19.78;43.76;99072.94;5095577;28;20051;-74
2021/12/01 09:28:16;;;;;;;1.58;0.40;;;;;;;19.82;43.89;99072.41;5094386;28;20070;-71
2021/12/01 09:30:42;;;;;;;2.63;0.50;;;;;;;19.88;43.80;99073.50;5095027;28;20024;-73
2021/12/01 09:33:07;;;;;;;2.38;0.57;;;;;;;19.92;43.77;99061.56;5094578;28;20028;-74
2021/12/01 09:35:35;;;;;;;1.23;0.45;;;;;;;19.94;43.60;99084.19;5095645;28;20482;-73
2021/12/01 09:38:01;;;;;;;1.10;0.47;;;;;;;20.00;43.48;99095.06;5095450;28;20028;-73
2021/12/01 09:40:26;;;;;;;0.90;0.38;;;;;;;20.01;43.53;99096.69;5094702;28;20098;-73
2021/12/01 09:42:52;;;;;;;0.75;0.40;;;;;;;20.03;43.64;99089.41;5094481;28;20032;-71
2021/12/01 09:45:21;;;;;;;1.63;0.57;;;;;;;20.03;43.34;99103.44;5094896;28;20028;-74
2021/12/01 09:47:48;;;;;;;0.90;0.40;;;;;;;20.03;43.26;99100.00;5094029;28;20540;-74
2021/12/01 09:50:14;;;;;;;1.25;0.40;;;;;;;20.01;43.18;99110.75;5094936;28;20075;-72
2021/12/01 09:52:40;;;;;;;0.68;0.40;;;;;;;19.91;43.47;99091.66;5094343;28;20479;-73
2021/12/01 09:55:07;;;;;;;1.73;0.60;;;;;;;19.84;43.77;99098.66;5093838;28;20120;-74
2021/12/01 09:57:32;;;;;;;1.00;0.50;;;;;;;19.74;43.73;99097.06;5094659;28;20069;-74
2021/12/01 09:59:58;;;;;;;2.38;0.55;;;;;;;19.67;44.20;99087.38;5094234;28;20031;-73
2021/12/01 10:02:25;;;;;;;0.90;0.50;;;;;;;19.59;44.26;99096.16;5094141;28;20028;-74
2021/12/01 10:04:53;;;;;;;1.50;0.55;;;;;;;19.53;44.37;99102.16;5094701;28;20036;-73
2021/12/01 10:07:32;;;;;;;1.02;0.50;;;;;;;19.47;44.27;99090.47;5095158;28;20032;-73
2021/12/01 10:10:07;;;;;;;1.85;0.60;;;;;;;19.45;44.40;99096.94;5093948;28;20027;-74
2021/12/01 10:12:48;;;;;;;1.65;0.70;;;;;;;19.39;44.40;99094.00;5094782;28;20035;-75
2021/12/01 10:15:14;;;;;;;2.40;0.50;;;;;;;19.35;44.71;99086.59;5094295;28;20016;-74
2021/12/01 10:17:39;;;;;;;1.63;0.60;;;;;;;19.32;44.47;99093.03;5094598;28;20391;-72
2021/12/01 10:20:18;;;;;;;2.15;0.65;;;;;;;19.30;44.50;99092.41;5095073;28;20039;-73
2021/12/01 10:23:06;;;;;;;2.47;0.63;;;;;;;19.28;44.42;99089.13;5094130;28;20109;-73
2021/12/01 10:25:32;;;;;;;1.35;0.55;;;;;;;19.22;44.48;99079.25;5095343;28;20032;-74
2021/12/01 10:27:57;;;;;;;2.17;0.73;;;;;;;19.24;44.71;99095.72;5094534;28;20425;-73
2021/12/01 10:30:45;;;;;;;1.58;0.52;;;;;;;19.22;44.83;99095.09;5094665;28;20035;-73
2021/12/01 10:33:16;;;;;;;1.75;0.60;;;;;;;19.20;44.65;99092.63;5095099;28;20062;-75
2021/12/01 10:35:42;;;;;;;1.42;0.50;;;;;;;19.19;44.73;99096.25;5094700;28;20039;-73
2021/12/01 10:38:10;;;;;;;3.35;0.70;;;;;;;19.17;44.72;99094.81;5094224;28;20036;-74
2021/12/01 10:40:37;;;;;;;3.65;0.70;;;;;;;19.16;44.56;99087.88;5094153;28;20024;-74
2021/12/01 10:43:07;;;;;;;2.13;0.60;;;;;;;19.15;44.77;99084.41;5094734;28;20028;-74
2021/12/01 10:45:38;;;;;;;3.30;0.98;;;;;;;19.12;44.87;99074.19;5094353;28;20020;-73
2021/12/01 10:48:09;;;;;;;2.15;0.60;;;;;;;19.13;44.60;99083.75;5093257;28;20036;-74
2021/12/01 10:50:40;;;;;;;2.47;0.52;;;;;;;19.12;44.54;99083.91;5094356;28;20097;-73
2021/12/01 10:53:15;;;;;;;1.80;0.50;;;;;;;19.10;44.80;99076.16;5094669;28;20110;-74
2021/12/01 10:55:44;;;;;;;2.55;0.70;;;;;;;19.10;44.79;99084.09;5095055;28;20085;-74
2021/12/01 10:58:10;;;;;;;1.98;0.60;;;;;;;19.09;44.93;99077.19;5095468;28;20379;-74
2021/12/01 11:00:42;;;;;;;2.05;0.50;;;;;;;19.09;44.76;99078.97;5095730;28;20059;-73
2021/12/01 11:03:12;;;;;;;2.17;0.68;;;;;;;19.08;44.89;99075.53;5098316;28;20572;-72
2021/12/01 11:05:55;;;;;;;2.90;0.77;;;;;;;19.10;44.88;99076.16;5094014;28;20539;-76
2021/12/01 11:08:31;;;;;;;2.83;0.70;;;;;;;19.19;44.76;99077.75;5094220;28;20061;-72
2021/12/01 11:11:14;;;;;;;2.75;0.65;;;;;;;19.19;44.25;99085.69;5093745;28;20024;-72
2021/12/01 11:13:42;;;;;;;2.88;0.80;;;;;;;19.19;44.55;99095.44;5092475;28;20024;-73
2021/12/01 11:16:13;;;;;;;1.75;0.60;;;;;;;19.16;44.36;99096.59;5093668;28;20361;-73
2021/12/01 11:18:41;;;;;;;2.00;0.70;;;;;;;19.14;44.54;99098.59;5093345;28;20130;-73
2021/12/01 11:21:12;;;;;;;1.55;0.52;;;;;;;19.12;44.38;99103.25;5096926;28;20028;-73
2021/12/01 11:23:41;;;;;;;2.05;0.60;;;;;;;19.11;44.79;99095.50;5101261;28;20498;-73
2021/12/01 11:26:15;;;;;;;2.40;0.60;;;;;;;19.09;44.56;99095.66;5101103;28;20047;-73
2021/12/01 11:28:45;;;;;;;4.03;0.80;;;;;;;19.09;44.60;99097.47;5096413;28;20027;-72
2021/12/01 11:31:14;;;;;;;1.23;0.50;;;;;;;19.09;44.70;99110.66;5096045;28;20020;-72
2021/12/01 11:33:43;;;;;;;2.85;0.60;;;;;;;19.07;44.48;99100.28;5094400;28;20055;-72
2021/12/01 11:36:12;;;;;;;3.25;0.65;;;;;;;19.07;44.57;99108.19;5095512;28;20032;-73
2021/12/01 11:38:38;;;;;;;3.80;0.70;;;;;;;19.05;44.38;99098.81;5092972;28;20059;-73